createdAt,value
2023-02-19T00:01:28.256Z,50.50
2023-02-19T00:03:59.088Z,57.30
2023-02-19T00:06:27.759Z,55.20
2023-02-19T00:08:54.915Z,56.40
2023-02-19T00:11:26.116Z,53.90
2023-02-19T00:13:55.524Z,59.30
2023-02-19T00:16:27.790Z,54.30
2023-02-19T00:18:56.370Z,59.60
2023-02-19T00:21:23.943Z,54.70
2023-02-19T00:23:52.870Z,55.10
2023-02-19T00:26:19.712Z,56.10
2023-02-19T00:28:48.537Z,55.00
2023-02-19T00:31:22.902Z,57.70
2023-02-19T00:33:52.644Z,58.90
2023-02-19T00:36:20.188Z,56.40
2023-02-19T00:38:47.024Z,60.50
2023-02-19T00:41:21.730Z,63.20
2023-02-19T00:44:03.090Z,59.50
2023-02-19T00:46:35.844Z,58.40
2023-02-19T00:49:04.532Z,58.50
2023-02-19T00:51:34.979Z,55.90
2023-02-19T00:54:02.150Z,59.20
2023-02-19T00:56:28.908Z,57.50
2023-02-19T00:58:56.228Z,59.30
2023-02-19T01:01:23.520Z,57.20
2023-02-19T01:03:50.964Z,54.20
2023-02-19T01:06:19.908Z,56.30
2023-02-19T01:08:47.321Z,54.10
2023-02-19T01:11:14.818Z,56.50
2023-02-19T01:13:42.864Z,54.90
2023-02-19T01:16:19.194Z,55.80
2023-02-19T01:18:47.935Z,55.80
2023-02-19T01:21:20.183Z,56.70
2023-02-19T01:23:48.317Z,54.10
2023-02-19T01:26:19.925Z,56.40
2023-02-19T01:28:47.139Z,57.60
2023-02-19T01:31:17.938Z,60.50
2023-02-19T01:33:53.910Z,59.90
2023-02-19T01:36:21.256Z,56.60
2023-02-19T01:38:48.712Z,56.00
2023-02-19T01:41:18.381Z,59.50
2023-02-19T01:44:15.917Z,56.70
2023-02-19T01:46:43.864Z,54.00
2023-02-19T01:49:15.863Z,54.10
2023-02-19T01:51:47.583Z,60.40
2023-02-19T01:54:18.060Z,57.20
2023-02-19T01:56:47.758Z,57.70
2023-02-19T01:59:15.354Z,56.10
2023-02-19T02:01:42.367Z,55.30
2023-02-19T02:04:13.332Z,55.20
2023-02-19T02:06:55.973Z,57.50
2023-02-19T02:09:55.953Z,54.90
2023-02-19T02:12:22.657Z,55.80
2023-02-19T02:14:49.382Z,54.70
2023-02-19T02:17:25.267Z,55.30
2023-02-19T02:20:26.325Z,54.10
2023-02-19T02:23:21.549Z,55.60
2023-02-19T02:26:36.385Z,50.40
2023-02-19T02:29:03.211Z,53.20
2023-02-19T02:31:43.496Z,54.40
2023-02-19T02:34:29.907Z,58.60
2023-02-19T02:36:57.542Z,58.00
2023-02-19T02:39:27.433Z,55.20
2023-02-19T02:42:17.084Z,57.70
2023-02-19T02:47:52.899Z,57.80
2023-02-19T02:50:26.270Z,54.80
2023-02-19T02:53:18.465Z,56.00
2023-02-19T02:55:49.760Z,55.60
2023-02-19T02:58:18.514Z,54.70
2023-02-19T03:01:10.471Z,57.70
2023-02-19T03:03:40.088Z,57.90
2023-02-19T03:06:09.476Z,58.20
2023-02-19T03:08:40.758Z,60.30
2023-02-19T03:11:30.629Z,52.30
2023-02-19T03:14:26.276Z,55.70
2023-02-19T03:17:18.827Z,55.00
2023-02-19T03:19:50.104Z,55.70
2023-02-19T03:22:25.981Z,55.60
2023-02-19T03:25:26.463Z,56.30
2023-02-19T03:27:57.696Z,56.00
2023-02-19T03:30:31.633Z,58.10
2023-02-19T03:33:08.269Z,58.80
2023-02-19T03:35:40.297Z,62.10
2023-02-19T03:38:18.797Z,60.50
2023-02-19T03:41:05.399Z,56.60
2023-02-19T03:43:32.775Z,54.40
2023-02-19T03:46:12.014Z,52.90
2023-02-19T03:48:48.909Z,53.80
2023-02-19T03:51:28.706Z,55.10
2023-02-19T03:54:20.446Z,54.80
2023-02-19T03:56:54.754Z,57.30
2023-02-19T03:59:55.992Z,56.20
2023-02-19T04:03:07.851Z,57.40
2023-02-19T04:05:41.299Z,54.20
2023-02-19T04:08:17.357Z,52.70
2023-02-19T04:10:50.071Z,54.70
2023-02-19T04:13:30.472Z,54.70
2023-02-19T04:16:04.762Z,57.80
2023-02-19T04:18:34.473Z,56.00
2023-02-19T04:21:03.731Z,58.50
2023-02-19T04:23:33.046Z,62.30
2023-02-19T04:26:01.411Z,59.70
2023-02-19T04:28:29.349Z,56.10
2023-02-19T04:30:56.196Z,56.00
2023-02-19T04:33:22.959Z,57.20
2023-02-19T04:35:49.708Z,59.40
2023-02-19T04:38:16.395Z,57.90
2023-02-19T04:40:43.138Z,56.10
2023-02-19T04:43:09.897Z,59.80
2023-02-19T04:45:39.718Z,55.80
2023-02-19T04:48:06.462Z,53.80
2023-02-19T04:50:33.300Z,58.70
2023-02-19T04:53:00.038Z,58.40
2023-02-19T04:55:26.724Z,57.80
2023-02-19T04:57:53.422Z,58.80
2023-02-19T05:00:20.357Z,60.30
2023-02-19T05:02:47.111Z,60.10
2023-02-19T05:05:14.157Z,58.30
2023-02-19T05:07:40.834Z,58.60
2023-02-19T05:10:07.941Z,65.00
2023-02-19T05:12:34.656Z,59.30
2023-02-19T05:15:01.340Z,57.10
2023-02-19T05:19:54.531Z,55.00
2023-02-19T05:22:21.285Z,58.90
2023-02-19T05:24:47.936Z,56.10
2023-02-19T05:27:14.630Z,62.00
2023-02-19T05:29:41.381Z,58.40
2023-02-19T05:32:08.082Z,58.50
2023-02-19T05:34:34.730Z,59.50
2023-02-19T05:39:28.104Z,61.20
2023-02-19T05:41:54.814Z,61.40
2023-02-19T05:44:21.518Z,61.40
2023-02-19T05:46:48.259Z,59.10
2023-02-19T05:49:14.995Z,57.60
2023-02-19T05:51:41.616Z,57.90
2023-02-19T05:56:40.324Z,56.00
2023-02-19T05:59:08.534Z,57.70
2023-02-19T06:01:35.682Z,56.10
2023-02-19T06:04:02.830Z,57.60
2023-02-19T06:06:29.969Z,55.50
2023-02-19T06:08:58.769Z,60.10
2023-02-19T06:11:25.724Z,60.20
2023-02-19T06:13:52.447Z,59.70
2023-02-19T06:16:19.771Z,59.90
2023-02-19T06:18:46.752Z,59.90
2023-02-19T06:21:14.932Z,55.30
2023-02-19T06:23:42.287Z,64.50
2023-02-19T06:26:27.186Z,60.50
2023-02-19T06:28:54.259Z,59.80
2023-02-19T06:31:22.840Z,58.10
2023-02-19T06:33:50.941Z,59.40
2023-02-19T06:36:20.451Z,62.70
2023-02-19T06:38:47.817Z,58.50
2023-02-19T06:41:14.914Z,61.30
2023-02-19T06:43:42.947Z,56.30
2023-02-19T06:46:12.050Z,55.80
2023-02-19T06:48:40.887Z,53.50
2023-02-19T06:51:08.405Z,57.70
2023-02-19T06:53:35.401Z,53.40
2023-02-19T06:56:05.710Z,55.30
2023-02-19T06:58:36.506Z,59.30
2023-02-19T07:01:03.234Z,56.60
2023-02-19T07:03:30.007Z,56.20
2023-02-19T07:05:59.803Z,57.70
2023-02-19T07:08:28.571Z,58.20
2023-02-19T07:10:58.534Z,59.80
2023-02-19T07:13:29.704Z,56.10
2023-02-19T07:16:01.920Z,56.40
2023-02-19T07:18:30.419Z,61.30
2023-02-19T07:21:09.170Z,62.10
2023-02-19T07:23:36.534Z,61.30
2023-02-19T07:26:04.282Z,61.50
2023-02-19T07:28:31.150Z,62.60
2023-02-19T07:31:02.759Z,63.10
2023-02-19T07:33:30.167Z,60.90
2023-02-19T07:35:57.711Z,61.70
2023-02-19T07:38:26.307Z,64.20
2023-02-19T07:40:57.614Z,61.00
2023-02-19T07:43:25.785Z,58.70
2023-02-19T07:45:52.809Z,62.40
2023-02-19T07:48:20.515Z,63.00
2023-02-19T07:50:54.993Z,61.80
2023-02-19T07:53:22.618Z,61.90
2023-02-19T07:55:49.819Z,60.10
2023-02-19T07:58:17.038Z,64.90
2023-02-19T08:00:43.853Z,64.30
2023-02-19T08:03:11.410Z,66.20
2023-02-19T08:05:40.174Z,69.50
2023-02-19T08:08:12.065Z,66.70
2023-02-19T08:10:57.950Z,65.70
2023-02-19T08:13:26.648Z,67.30
2023-02-19T08:16:20.017Z,66.20
2023-02-19T08:18:49.463Z,68.40
2023-02-19T08:21:18.410Z,68.70
2023-02-19T08:23:46.615Z,66.90
2023-02-19T08:26:13.988Z,68.20
2023-02-19T08:28:41.374Z,72.30
2023-02-19T08:31:11.417Z,67.60
2023-02-19T08:33:38.760Z,67.90
2023-02-19T08:36:07.834Z,68.50
2023-02-19T08:38:36.031Z,69.90
2023-02-19T08:41:07.714Z,66.40
2023-02-19T08:43:34.808Z,66.30
2023-02-19T08:46:01.647Z,68.70
2023-02-19T08:48:28.999Z,66.10
2023-02-19T08:50:58.341Z,65.70
2023-02-19T08:53:26.149Z,67.50
2023-02-19T08:55:53.638Z,64.10
2023-02-19T08:58:20.472Z,69.80
2023-02-19T09:00:47.695Z,63.50
2023-02-19T09:03:14.643Z,65.30
2023-02-19T09:05:42.015Z,65.20
2023-02-19T09:08:09.279Z,66.70
2023-02-19T09:10:36.020Z,61.80
2023-02-19T09:13:02.979Z,65.40
2023-02-19T09:15:29.896Z,67.00
2023-02-19T09:17:57.217Z,63.30
2023-02-19T09:20:23.978Z,63.00
2023-02-19T09:22:50.821Z,60.70
2023-02-19T09:25:17.685Z,60.70
2023-02-19T09:27:44.404Z,59.80
2023-02-19T09:30:11.547Z,59.40
2023-02-19T09:32:38.458Z,51.70
2023-02-19T09:35:05.399Z,57.50
2023-02-19T09:37:34.021Z,53.90
2023-02-19T09:40:00.922Z,55.00
2023-02-19T09:42:31.568Z,54.30
2023-02-19T09:45:00.987Z,52.70
2023-02-19T09:47:31.403Z,52.90
2023-02-19T09:50:06.641Z,53.90
2023-02-19T09:52:36.931Z,54.80
2023-02-19T09:55:15.032Z,52.50
2023-02-19T09:57:43.717Z,51.50
2023-02-19T10:00:19.233Z,52.20
2023-02-19T10:02:46.062Z,53.40
2023-02-19T10:05:14.615Z,53.30
2023-02-19T10:07:47.936Z,53.40
2023-02-19T10:10:14.697Z,53.10
2023-02-19T10:12:47.672Z,51.30
2023-02-19T10:15:25.328Z,53.20
2023-02-19T10:17:52.120Z,52.80
2023-02-19T10:20:26.763Z,52.00
2023-02-19T10:23:06.129Z,51.80
2023-02-19T10:25:34.922Z,51.40
2023-02-19T10:28:02.707Z,50.50
2023-02-19T10:30:32.203Z,51.10
2023-02-19T10:33:10.211Z,52.40
2023-02-19T10:36:00.478Z,56.10
2023-02-19T10:38:40.516Z,53.20
2023-02-19T10:41:15.560Z,55.10
2023-02-19T10:43:51.105Z,53.30
2023-02-19T10:46:22.571Z,53.70
2023-02-19T10:49:04.988Z,60.50
2023-02-19T10:51:38.222Z,60.50
2023-02-19T10:54:07.139Z,60.60
2023-02-19T10:56:34.210Z,61.70
2023-02-19T10:59:19.322Z,62.10
2023-02-19T11:02:00.876Z,59.70
2023-02-19T11:04:34.033Z,55.70
2023-02-19T11:07:18.287Z,57.50
2023-02-19T11:09:49.714Z,54.60
2023-02-19T11:12:26.984Z,56.90
2023-02-19T11:14:54.503Z,57.50
2023-02-19T11:17:30.352Z,53.80
2023-02-19T11:20:00.252Z,54.50
2023-02-19T11:22:38.313Z,54.10
2023-02-19T11:25:06.968Z,55.60
2023-02-19T11:27:34.314Z,50.00
2023-02-19T11:30:22.742Z,53.20
2023-02-19T11:33:08.341Z,54.00
2023-02-19T11:35:35.044Z,50.80
2023-02-19T11:38:02.326Z,52.50
2023-02-19T11:40:40.692Z,54.70
2023-02-19T11:43:20.414Z,52.90
2023-02-19T11:46:07.192Z,50.10
2023-02-19T11:48:46.310Z,53.20
2023-02-19T11:51:39.103Z,52.10
2023-02-19T11:54:30.385Z,53.00
2023-02-19T12:00:02.480Z,56.00
2023-02-19T12:02:48.266Z,46.90
2023-02-19T12:05:19.688Z,52.40
2023-02-19T12:07:55.496Z,53.30
2023-02-19T12:10:47.817Z,52.20
2023-02-19T12:13:28.563Z,50.70
2023-02-19T12:16:18.241Z,54.70
2023-02-19T12:18:50.725Z,54.70
2023-02-19T12:23:56.614Z,54.10
2023-02-19T12:26:41.740Z,55.60
2023-02-19T12:29:14.359Z,51.40
2023-02-19T12:32:03.052Z,50.90
2023-02-19T12:34:29.906Z,50.60
2023-02-19T12:37:11.621Z,50.40
2023-02-19T12:39:46.030Z,51.50
2023-02-19T12:42:45.990Z,64.90
2023-02-19T12:45:30.006Z,52.00
2023-02-19T12:48:06.784Z,49.40
2023-02-19T12:50:36.517Z,57.40
2023-02-19T12:53:25.225Z,57.30
2023-02-19T12:55:52.924Z,51.50
2023-02-19T12:58:37.936Z,52.80
2023-02-19T13:01:07.577Z,50.10
2023-02-19T13:04:13.454Z,59.70
2023-02-19T13:06:45.664Z,60.50
2023-02-19T13:09:19.842Z,76.20
2023-02-19T13:11:53.428Z,88.00
2023-02-19T13:14:34.298Z,58.00
2023-02-19T13:17:11.433Z,62.80
2023-02-19T13:19:38.695Z,55.20
2023-02-19T13:22:37.042Z,63.20
2023-02-19T13:25:06.898Z,49.60
2023-02-19T13:27:52.032Z,50.60
2023-02-19T13:30:43.349Z,54.80
2023-02-19T13:33:33.217Z,62.30
2023-02-19T13:36:28.442Z,57.60
2023-02-19T13:38:57.450Z,51.90
2023-02-19T13:41:39.474Z,49.60
2023-02-19T13:44:16.496Z,61.10
2023-02-19T13:46:45.724Z,57.20
2023-02-19T13:49:27.743Z,52.70
2023-02-19T13:51:56.202Z,48.10
2023-02-19T13:54:27.222Z,45.70
2023-02-19T13:57:29.430Z,48.20
2023-02-19T14:00:00.227Z,50.00
2023-02-19T14:02:31.361Z,46.40
2023-02-19T14:05:01.217Z,51.20
2023-02-19T14:07:27.934Z,51.00
2023-02-19T14:09:54.971Z,49.70
2023-02-19T14:12:33.409Z,52.00
2023-02-19T14:17:46.812Z,47.90
2023-02-19T14:20:16.408Z,50.60
2023-02-19T14:22:46.230Z,51.90
2023-02-19T14:25:31.392Z,53.50
2023-02-19T14:28:17.401Z,49.10
2023-02-19T14:31:01.266Z,53.10
2023-02-19T14:33:35.829Z,50.20
2023-02-19T14:36:19.083Z,47.70
2023-02-19T14:38:52.078Z,49.50
2023-02-19T14:41:20.481Z,53.70
2023-02-19T14:43:50.732Z,51.50
2023-02-19T14:46:31.812Z,51.70
2023-02-19T14:49:08.112Z,51.80
2023-02-19T14:51:40.391Z,52.60
2023-02-19T14:54:17.588Z,54.60
2023-02-19T14:56:52.707Z,53.80
2023-02-19T14:59:27.417Z,51.70
2023-02-19T15:02:13.761Z,51.50
2023-02-19T15:04:40.704Z,50.50
2023-02-19T15:07:13.437Z,51.40
2023-02-19T15:09:44.990Z,51.90
2023-02-19T15:12:21.843Z,51.40
2023-02-19T15:14:51.141Z,49.50
2023-02-19T15:17:27.244Z,52.00
2023-02-19T15:19:55.715Z,50.00
2023-02-19T15:22:26.081Z,49.70
2023-02-19T15:24:52.831Z,54.20
2023-02-19T15:27:24.741Z,56.10
2023-02-19T15:29:53.739Z,54.80
2023-02-19T15:32:23.677Z,54.50
2023-02-19T15:34:58.732Z,53.10
2023-02-19T15:37:28.900Z,52.70
2023-02-19T15:39:57.825Z,53.30
2023-02-19T15:42:32.403Z,53.00
2023-02-19T15:45:13.791Z,55.40
2023-02-19T15:47:50.203Z,58.60
2023-02-19T15:50:34.641Z,58.80
2023-02-19T15:53:07.391Z,57.50
2023-02-19T15:55:43.765Z,54.60
2023-02-19T15:58:19.606Z,53.00
2023-02-19T16:00:55.986Z,48.70
2023-02-19T16:03:25.037Z,48.40
2023-02-19T16:06:18.200Z,49.40
2023-02-19T16:09:02.108Z,48.10
2023-02-19T16:11:30.996Z,49.60
2023-02-19T16:14:34.853Z,49.40
2023-02-19T16:17:15.633Z,47.30
2023-02-19T16:20:01.878Z,47.80
2023-02-19T16:22:31.461Z,47.70
2023-02-19T16:25:05.057Z,49.60
2023-02-19T16:27:31.926Z,49.20
2023-02-19T16:30:01.469Z,50.50
2023-02-19T16:32:28.297Z,48.30
2023-02-19T16:34:55.055Z,49.70
2023-02-19T16:37:30.571Z,50.40
2023-02-19T16:40:09.459Z,57.70
2023-02-19T16:42:38.165Z,54.80
2023-02-19T16:45:08.542Z,55.40
2023-02-19T16:47:40.565Z,59.90
2023-02-19T16:50:14.836Z,55.60
2023-02-19T16:53:03.108Z,58.60
2023-02-19T16:55:34.814Z,56.30
2023-02-19T16:58:01.607Z,58.40
2023-02-19T17:00:31.157Z,55.90
2023-02-19T17:03:02.993Z,59.40
2023-02-19T17:05:32.642Z,58.20
2023-02-19T17:07:59.368Z,54.70
2023-02-19T17:10:28.071Z,57.50
2023-02-19T17:12:56.100Z,53.40
2023-02-19T17:15:23.514Z,57.30
2023-02-19T17:17:50.249Z,55.10
2023-02-19T17:20:20.697Z,53.50
2023-02-19T17:22:47.473Z,54.80
2023-02-19T17:25:14.340Z,54.30
2023-02-19T17:27:41.334Z,53.90
2023-02-19T17:30:20.454Z,57.40
2023-02-19T17:32:47.137Z,54.20
2023-02-19T17:35:13.872Z,54.90
2023-02-19T17:37:40.612Z,57.10
2023-02-19T17:40:33.253Z,57.80
2023-02-19T17:43:01.217Z,57.40
2023-02-19T17:45:28.247Z,62.30
2023-02-19T17:47:54.999Z,57.00
2023-02-19T17:50:25.615Z,53.70
2023-02-19T17:52:52.660Z,56.60
2023-02-19T17:55:19.460Z,50.50
2023-02-19T17:57:49.762Z,54.40
2023-02-19T18:00:25.197Z,54.20
2023-02-19T18:02:51.924Z,55.70
2023-02-19T18:05:19.193Z,57.70
2023-02-19T18:07:47.462Z,51.80
2023-02-19T18:10:16.392Z,54.10
2023-02-19T18:12:43.298Z,48.30
2023-02-19T18:15:17.350Z,50.10
2023-02-19T18:17:44.565Z,54.50
2023-02-19T18:20:20.670Z,51.40
2023-02-19T18:22:47.721Z,52.30
2023-02-19T18:25:15.852Z,53.10
2023-02-19T18:27:42.783Z,54.00
2023-02-19T18:30:10.257Z,52.30
2023-02-19T18:32:37.498Z,53.80
2023-02-19T18:35:05.308Z,50.10
2023-02-19T18:37:33.794Z,55.80
2023-02-19T18:40:01.200Z,59.70
2023-02-19T18:42:28.726Z,54.60
2023-02-19T18:44:56.149Z,55.00
2023-02-19T18:47:25.428Z,53.70
2023-02-19T18:49:54.759Z,54.70
2023-02-19T18:52:24.860Z,56.10
2023-02-19T18:54:53.571Z,56.30
2023-02-19T18:57:22.315Z,54.20
2023-02-19T18:59:49.210Z,54.70
2023-02-19T19:02:16.184Z,52.40
2023-02-19T19:04:43.415Z,54.10
2023-02-19T19:07:10.834Z,50.90
2023-02-19T19:09:37.625Z,52.70
2023-02-19T19:12:04.803Z,52.30
2023-02-19T19:14:31.560Z,55.50
2023-02-19T19:16:58.286Z,55.30
2023-02-19T19:19:25.295Z,55.00
2023-02-19T19:21:53.871Z,52.50
2023-02-19T19:24:23.060Z,54.30
2023-02-19T19:26:50.830Z,52.90
2023-02-19T19:29:20.144Z,52.90
2023-02-19T19:31:47.089Z,56.50
2023-02-19T19:34:14.757Z,50.90
2023-02-19T19:36:41.650Z,52.80
2023-02-19T19:39:09.651Z,56.70
2023-02-19T19:41:36.965Z,56.50
2023-02-19T19:44:08.148Z,54.50
2023-02-19T19:46:35.197Z,53.40
2023-02-19T19:49:02.081Z,55.10
2023-02-19T19:51:33.828Z,52.70
2023-02-19T19:54:03.129Z,51.60
2023-02-19T19:56:30.702Z,55.20
2023-02-19T19:58:57.393Z,50.40
2023-02-19T20:01:24.185Z,51.90
2023-02-19T20:03:51.272Z,51.70
2023-02-19T20:06:30.780Z,56.20
2023-02-19T20:08:58.311Z,56.90
2023-02-19T20:11:26.809Z,55.40
2023-02-19T20:13:53.820Z,53.90
2023-02-19T20:16:25.387Z,56.80
2023-02-19T20:18:54.479Z,54.40
2023-02-19T20:21:21.380Z,54.60
2023-02-19T20:23:48.213Z,53.10
2023-02-19T20:26:22.042Z,54.30
2023-02-19T20:28:49.065Z,54.30
2023-02-19T20:31:16.040Z,57.70
2023-02-19T20:33:42.886Z,58.80
2023-02-19T20:36:09.802Z,55.70
2023-02-19T20:38:37.001Z,52.90
2023-02-19T20:41:03.957Z,51.50
2023-02-19T20:43:31.113Z,53.10
2023-02-19T20:45:57.896Z,53.10
2023-02-19T20:48:24.560Z,53.20
2023-02-19T20:50:51.446Z,53.30
2023-02-19T20:53:18.177Z,54.30
2023-02-19T20:55:45.124Z,53.80
2023-02-19T20:58:12.106Z,52.80
2023-02-19T21:00:38.766Z,54.90
2023-02-19T21:03:08.959Z,59.70
2023-02-19T21:05:38.646Z,57.70
2023-02-19T21:08:05.883Z,54.70
2023-02-19T21:10:32.682Z,55.70
2023-02-19T21:12:59.472Z,56.60
2023-02-19T21:15:27.825Z,59.50
2023-02-19T21:17:54.495Z,59.00
2023-02-19T21:20:21.268Z,53.80
2023-02-19T21:22:48.141Z,56.90
2023-02-19T21:25:14.969Z,57.10
2023-02-19T21:27:42.113Z,57.50
2023-02-19T21:30:09.335Z,58.70
2023-02-19T21:32:36.072Z,57.00
2023-02-19T21:35:03.008Z,58.20
2023-02-19T21:37:29.959Z,60.50
2023-02-19T21:40:00.698Z,61.60
2023-02-19T21:42:27.594Z,63.00
2023-02-19T21:44:54.503Z,61.10
2023-02-19T21:47:21.241Z,61.20
2023-02-19T21:49:48.150Z,54.30
2023-02-19T21:52:15.179Z,61.00
2023-02-19T21:54:41.986Z,56.00
2023-02-19T21:57:09.542Z,60.10
2023-02-19T21:59:36.335Z,60.40
2023-02-19T22:02:03.354Z,60.00
2023-02-19T22:04:30.118Z,61.70
2023-02-19T22:06:57.637Z,58.70
2023-02-19T22:09:24.681Z,59.40
2023-02-19T22:11:51.717Z,60.90
2023-02-19T22:14:19.491Z,58.00
2023-02-19T22:16:46.985Z,57.20
2023-02-19T22:19:14.937Z,60.60
2023-02-19T22:21:44.553Z,58.30
2023-02-19T22:24:17.247Z,55.00
2023-02-19T22:26:45.800Z,58.60
2023-02-19T22:29:14.564Z,60.80
2023-02-19T22:31:41.840Z,57.60
2023-02-19T22:34:09.321Z,58.20
2023-02-19T22:36:40.339Z,58.00
2023-02-19T22:39:10.440Z,57.30
2023-02-19T22:41:42.844Z,55.80
2023-02-19T22:44:11.416Z,52.60
2023-02-19T22:46:38.279Z,53.00
2023-02-19T22:49:07.050Z,53.40
2023-02-19T22:51:35.646Z,54.00
2023-02-19T22:54:02.756Z,55.60
2023-02-19T22:56:29.603Z,52.20
2023-02-19T22:58:57.412Z,54.10
2023-02-19T23:01:25.156Z,53.30
2023-02-19T23:04:00.207Z,57.10
2023-02-19T23:06:30.804Z,55.00
2023-02-19T23:08:59.320Z,56.10
2023-02-19T23:11:29.684Z,55.40
2023-02-19T23:13:56.914Z,55.40
2023-02-19T23:16:23.799Z,53.50
2023-02-19T23:18:50.820Z,57.40
2023-02-19T23:21:19.068Z,54.90
2023-02-19T23:23:46.516Z,55.50
2023-02-19T23:26:14.578Z,56.20
2023-02-19T23:28:42.871Z,53.30
2023-02-19T23:31:10.566Z,53.00
2023-02-19T23:33:37.377Z,53.90
2023-02-19T23:36:05.342Z,52.70
2023-02-19T23:38:32.099Z,53.90
2023-02-19T23:40:59.211Z,55.20
2023-02-19T23:43:25.985Z,58.30
2023-02-19T23:45:52.887Z,55.60
2023-02-19T23:48:19.584Z,55.70
2023-02-19T23:50:46.314Z,56.60
2023-02-19T23:53:13.007Z,54.30
2023-02-19T23:55:39.759Z,54.00
2023-02-19T23:58:06.529Z,55.70
